sensor_id;sensor_type;location;lat;lon;timestamp;pressure;altitude;pressure_sealevel;temperature;humidity
51259;BME280;37327;54.254;18.504;2022-09-16T00:00:10;99192.52;;;11.52;84.41
51259;BME280;37327;54.254;18.504;2022-09-16T00:03:23;99188.36;;;11.50;84.65
51259;BME280;37327;54.254;18.504;2022-09-16T00:06:34;99193.16;;;11.48;84.52
51259;BME280;37327;54.254;18.504;2022-09-16T00:09:46;99187.37;;;11.44;84.58
51259;BME280;37327;54.254;18.504;2022-09-16T00:12:57;99183.84;;;11.43;84.67
51259;BME280;37327;54.254;18.504;2022-09-16T00:16:31;99184.27;;;11.40;84.68
51259;BME280;37327;54.254;18.504;2022-09-16T00:19:29;99184.27;;;11.40;84.47
51259;BME280;37327;54.254;18.504;2022-09-16T00:22:41;99188.03;;;11.39;84.59
51259;BME280;37327;54.254;18.504;2022-09-16T00:25:56;99186.36;;;11.38;84.24
51259;BME280;37327;54.254;18.504;2022-09-16T00:29:10;99193.43;;;11.39;84.16
51259;BME280;37327;54.254;18.504;2022-09-16T00:32:25;99199.45;;;11.41;84.21
51259;BME280;37327;54.254;18.504;2022-09-16T00:35:29;99193.86;;;11.36;84.17
51259;BME280;37327;54.254;18.504;2022-09-16T00:39:00;99179.73;;;11.34;84.14
51259;BME280;37327;54.254;18.504;2022-09-16T00:42:17;99182.70;;;11.33;84.10
51259;BME280;37327;54.254;18.504;2022-09-16T00:45:25;99185.60;;;11.31;84.16
51259;BME280;37327;54.254;18.504;2022-09-16T00:48:34;99186.00;;;11.35;83.60
51259;BME280;37327;54.254;18.504;2022-09-16T00:51:40;99183.05;;;11.36;83.39
51259;BME280;37327;54.254;18.504;2022-09-16T00:54:47;99181.41;;;11.35;83.16
51259;BME280;37327;54.254;18.504;2022-09-16T00:58:04;99187.23;;;11.32;83.18
51259;BME280;37327;54.254;18.504;2022-09-16T01:01:18;99184.99;;;11.29;83.00
51259;BME280;37327;54.254;18.504;2022-09-16T01:04:34;99181.45;;;11.29;82.85
51259;BME280;37327;54.254;18.504;2022-09-16T01:07:47;99180.84;;;11.26;82.99
51259;BME280;37327;54.254;18.504;2022-09-16T01:10:54;99180.47;;;11.23;83.10
51259;BME280;37327;54.254;18.504;2022-09-16T01:14:06;99180.29;;;11.18;83.29
51259;BME280;37327;54.254;18.504;2022-09-16T01:34:25;99185.07;;;10.84;85.58
51259;BME280;37327;54.254;18.504;2022-09-16T01:51:06;99177.64;;;10.73;86.85
51259;BME280;37327;54.254;18.504;2022-09-16T01:54:29;99172.66;;;10.70;87.11
51259;BME280;37327;54.254;18.504;2022-09-16T02:01:17;99180.40;;;10.59;87.35
51259;BME280;37327;54.254;18.504;2022-09-16T02:07:46;99178.15;;;10.50;87.42
51259;BME280;37327;54.254;18.504;2022-09-16T02:11:00;99177.33;;;10.49;87.32
51259;BME280;37327;54.254;18.504;2022-09-16T02:14:15;99181.47;;;10.52;86.61
51259;BME280;37327;54.254;18.504;2022-09-16T02:17:29;99171.73;;;10.51;86.27
51259;BME280;37327;54.254;18.504;2022-09-16T02:20:45;99168.39;;;10.48;85.97
51259;BME280;37327;54.254;18.504;2022-09-16T02:24:00;99167.37;;;10.50;85.92
51259;BME280;37327;54.254;18.504;2022-09-16T02:27:17;99175.66;;;10.48;86.15
51259;BME280;37327;54.254;18.504;2022-09-16T02:30:23;99167.77;;;10.46;86.51
51259;BME280;37327;54.254;18.504;2022-09-16T02:37:00;99169.05;;;10.44;87.33
51259;BME280;37327;54.254;18.504;2022-09-16T02:40:21;99171.13;;;10.42;87.93
51259;BME280;37327;54.254;18.504;2022-09-16T02:43:31;99166.55;;;10.42;88.02
51259;BME280;37327;54.254;18.504;2022-09-16T02:50:00;99156.41;;;10.38;88.50
51259;BME280;37327;54.254;18.504;2022-09-16T02:56:34;99151.63;;;10.40;88.63
51259;BME280;37327;54.254;18.504;2022-09-16T02:59:47;99162.22;;;10.35;88.65
51259;BME280;37327;54.254;18.504;2022-09-16T03:02:58;99156.82;;;10.35;88.68
51259;BME280;37327;54.254;18.504;2022-09-16T03:06:15;99149.99;;;10.32;88.75
51259;BME280;37327;54.254;18.504;2022-09-16T03:09:27;99155.77;;;10.29;88.75
51259;BME280;37327;54.254;18.504;2022-09-16T03:12:47;99142.73;;;10.26;88.80
51259;BME280;37327;54.254;18.504;2022-09-16T03:26:10;99161.84;;;10.18;89.13
51259;BME280;37327;54.254;18.504;2022-09-16T03:29:50;99168.27;;;10.17;89.17
51259;BME280;37327;54.254;18.504;2022-09-16T03:36:06;99171.78;;;10.17;89.22
51259;BME280;37327;54.254;18.504;2022-09-16T03:39:20;99166.39;;;10.17;89.26
51259;BME280;37327;54.254;18.504;2022-09-16T03:42:33;99167.65;;;10.15;89.42
51259;BME280;37327;54.254;18.504;2022-09-16T03:45:44;99171.61;;;10.12;89.70
51259;BME280;37327;54.254;18.504;2022-09-16T03:48:57;99174.71;;;10.09;89.86
51259;BME280;37327;54.254;18.504;2022-09-16T03:52:09;99180.31;;;10.07;89.94
51259;BME280;37327;54.254;18.504;2022-09-16T03:55:21;99185.95;;;10.06;90.01
51259;BME280;37327;54.254;18.504;2022-09-16T03:58:34;99187.79;;;10.05;89.92
51259;BME280;37327;54.254;18.504;2022-09-16T04:01:41;99184.06;;;10.00;90.02
51259;BME280;37327;54.254;18.504;2022-09-16T04:04:52;99193.40;;;9.97;90.15
51259;BME280;37327;54.254;18.504;2022-09-16T04:08:23;99177.66;;;9.94;90.47
51259;BME280;37327;54.254;18.504;2022-09-16T04:11:27;99183.26;;;9.93;90.62
51259;BME280;37327;54.254;18.504;2022-09-16T04:14:38;99192.61;;;9.90;90.81
51259;BME280;37327;54.254;18.504;2022-09-16T04:17:51;99198.20;;;9.88;90.97
51259;BME280;37327;54.254;18.504;2022-09-16T04:21:08;99198.60;;;9.85;90.98
51259;BME280;37327;54.254;18.504;2022-09-16T04:24:20;99197.59;;;9.86;90.91
51259;BME280;37327;54.254;18.504;2022-09-16T04:27:32;99194.04;;;9.86;90.77
51259;BME280;37327;54.254;18.504;2022-09-16T04:30:39;99189.50;;;9.86;90.71
51259;BME280;37327;54.254;18.504;2022-09-16T04:34:08;99183.25;;;9.86;90.76
51259;BME280;37327;54.254;18.504;2022-09-16T04:37:18;99180.79;;;9.84;90.74
51259;BME280;37327;54.254;18.504;2022-09-16T04:40:30;99187.82;;;9.85;90.73
51259;BME280;37327;54.254;18.504;2022-09-16T04:43:51;99190.32;;;9.87;90.63
51259;BME280;37327;54.254;18.504;2022-09-16T04:47:05;99191.14;;;9.87;90.46
51259;BME280;37327;54.254;18.504;2022-09-16T04:50:15;99189.06;;;9.89;90.47
51259;BME280;37327;54.254;18.504;2022-09-16T04:57:08;99187.42;;;9.88;90.53
51259;BME280;37327;54.254;18.504;2022-09-16T05:00:22;99189.06;;;9.89;90.42
51259;BME280;37327;54.254;18.504;2022-09-16T05:03:32;99185.13;;;9.92;90.21
51259;BME280;37327;54.254;18.504;2022-09-16T05:07:02;99188.45;;;9.94;90.19
51259;BME280;37327;54.254;18.504;2022-09-16T05:10:10;99185.52;;;9.96;90.19
51259;BME280;37327;54.254;18.504;2022-09-16T05:13:22;99199.00;;;9.96;90.21
51259;BME280;37327;54.254;18.504;2022-09-16T05:16:28;99197.77;;;9.92;90.10
51259;BME280;37327;54.254;18.504;2022-09-16T05:19:46;99198.62;;;9.92;90.13
51259;BME280;37327;54.254;18.504;2022-09-16T05:22:57;99199.00;;;9.96;90.35
51259;BME280;37327;54.254;18.504;2022-09-16T05:26:07;99196.52;;;10.01;90.13
51259;BME280;37327;54.254;18.504;2022-09-16T05:29:17;99191.12;;;10.01;90.07
51259;BME280;37327;54.254;18.504;2022-09-16T05:32:53;99186.98;;;9.98;90.15
51259;BME280;37327;54.254;18.504;2022-09-16T05:36:12;99195.41;;;10.28;91.74
51259;BME280;37327;54.254;18.504;2022-09-16T05:39:21;99190.36;;;11.61;90.78
51259;BME280;37327;54.254;18.504;2022-09-16T05:42:28;99182.49;;;12.77;86.27
51259;BME280;37327;54.254;18.504;2022-09-16T05:45:38;99187.20;;;13.30;81.42
51259;BME280;37327;54.254;18.504;2022-09-16T05:48:44;99178.60;;;13.33;79.75
51259;BME280;37327;54.254;18.504;2022-09-16T05:51:57;99186.89;;;13.20;78.69
51259;BME280;37327;54.254;18.504;2022-09-16T05:55:11;99189.89;;;13.00;78.11
51259;BME280;37327;54.254;18.504;2022-09-16T05:58:25;99186.22;;;12.94;78.52
51259;BME280;37327;54.254;18.504;2022-09-16T06:01:42;99190.59;;;12.95;78.18
51259;BME280;37327;54.254;18.504;2022-09-16T06:04:52;99183.83;;;12.86;78.08
51259;BME280;37327;54.254;18.504;2022-09-16T06:08:04;99186.39;;;12.81;78.16
51259;BME280;37327;54.254;18.504;2022-09-16T06:11:36;99180.85;;;12.76;77.76
51259;BME280;37327;54.254;18.504;2022-09-16T06:14:56;99193.52;;;12.63;77.41
51259;BME280;37327;54.254;18.504;2022-09-16T06:18:23;99180.41;;;12.42;78.03
51259;BME280;37327;54.254;18.504;2022-09-16T06:21:32;99181.80;;;12.33;78.50
51259;BME280;37327;54.254;18.504;2022-09-16T06:24:43;99185.32;;;12.33;78.42
51259;BME280;37327;54.254;18.504;2022-09-16T06:28:14;99177.88;;;12.29;78.50
51259;BME280;37327;54.254;18.504;2022-09-16T06:31:25;99176.08;;;12.41;78.64
51259;BME280;37327;54.254;18.504;2022-09-16T06:34:30;99179.81;;;12.58;78.25
51259;BME280;37327;54.254;18.504;2022-09-16T06:37:36;99163.80;;;12.57;77.90
51259;BME280;37327;54.254;18.504;2022-09-16T06:40:45;99165.69;;;12.56;77.92
51259;BME280;37327;54.254;18.504;2022-09-16T06:43:58;99159.90;;;12.53;77.88
51259;BME280;37327;54.254;18.504;2022-09-16T06:47:10;99164.33;;;12.47;77.80
51259;BME280;37327;54.254;18.504;2022-09-16T06:50:20;99174.34;;;12.47;78.04
51259;BME280;37327;54.254;18.504;2022-09-16T06:53:51;99169.58;;;12.42;77.67
51259;BME280;37327;54.254;18.504;2022-09-16T06:56:59;99169.68;;;12.35;77.51
51259;BME280;37327;54.254;18.504;2022-09-16T07:00:13;99164.65;;;12.39;77.85
51259;BME280;37327;54.254;18.504;2022-09-16T07:03:17;99171.70;;;12.40;78.42
51259;BME280;37327;54.254;18.504;2022-09-16T07:06:29;99175.16;;;12.47;78.59
51259;BME280;37327;54.254;18.504;2022-09-16T07:09:48;99171.54;;;12.53;77.99
51259;BME280;37327;54.254;18.504;2022-09-16T07:13:03;99169.80;;;12.59;77.77
51259;BME280;37327;54.254;18.504;2022-09-16T07:16:15;99165.59;;;12.63;77.43
51259;BME280;37327;54.254;18.504;2022-09-16T07:19:20;99167.26;;;12.64;77.41
51259;BME280;37327;54.254;18.504;2022-09-16T07:22:55;99171.38;;;12.67;77.26
51259;BME280;37327;54.254;18.504;2022-09-16T07:26:07;99175.98;;;12.66;77.26
51259;BME280;37327;54.254;18.504;2022-09-16T07:29:16;99167.16;;;12.71;77.67
51259;BME280;37327;54.254;18.504;2022-09-16T07:38:24;99168.38;;;13.05;77.42
51259;BME280;37327;54.254;18.504;2022-09-16T07:41:37;99163.44;;;13.44;76.11
51259;BME280;37327;54.254;18.504;2022-09-16T07:44:42;99168.29;;;13.77;74.70
51259;BME280;37327;54.254;18.504;2022-09-16T07:47:48;99171.95;;;13.83;73.90
51259;BME280;37327;54.254;18.504;2022-09-16T07:50:59;99166.40;;;13.78;73.09
51259;BME280;37327;54.254;18.504;2022-09-16T07:54:27;99159.66;;;13.80;73.24
51259;BME280;37327;54.254;18.504;2022-09-16T07:58:14;99162.88;;;13.77;72.63
51259;BME280;37327;54.254;18.504;2022-09-16T08:02:07;99168.53;;;13.88;72.14
51259;BME280;37327;54.254;18.504;2022-09-16T08:09:53;99164.24;;;14.27;70.49
51259;BME280;37327;54.254;18.504;2022-09-16T08:13:36;99167.04;;;14.44;69.72
51259;BME280;37327;54.254;18.504;2022-09-16T08:16:43;99167.86;;;14.56;69.15
51259;BME280;37327;54.254;18.504;2022-09-16T08:20:29;99173.29;;;14.56;67.78
51259;BME280;37327;54.254;18.504;2022-09-16T08:23:35;99180.24;;;14.64;67.98
51259;BME280;37327;54.254;18.504;2022-09-16T08:26:40;99172.90;;;14.76;68.38
51259;BME280;37327;54.254;18.504;2022-09-16T08:29:46;99173.44;;;14.90;68.10
51259;BME280;37327;54.254;18.504;2022-09-16T08:32:59;99176.86;;;15.14;67.23
51259;BME280;37327;54.254;18.504;2022-09-16T08:36:20;99182.74;;;15.40;66.91
51259;BME280;37327;54.254;18.504;2022-09-16T08:39:34;99189.85;;;15.41;65.68
51259;BME280;37327;54.254;18.504;2022-09-16T08:42:58;99180.19;;;15.50;64.88
51259;BME280;37327;54.254;18.504;2022-09-16T08:46:22;99190.82;;;15.52;64.95
51259;BME280;37327;54.254;18.504;2022-09-16T08:49:42;99196.20;;;15.47;63.89
51259;BME280;37327;54.254;18.504;2022-09-16T08:52:51;99174.34;;;15.42;63.15
51259;BME280;37327;54.254;18.504;2022-09-16T08:56:12;99182.84;;;15.45;63.45
51259;BME280;37327;54.254;18.504;2022-09-16T08:59:24;99183.58;;;15.57;63.22
51259;BME280;37327;54.254;18.504;2022-09-16T09:02:44;99168.27;;;15.68;63.08
51259;BME280;37327;54.254;18.504;2022-09-16T09:05:57;99172.88;;;15.85;63.10
51259;BME280;37327;54.254;18.504;2022-09-16T09:12:36;99168.69;;;15.77;62.45
51259;BME280;37327;54.254;18.504;2022-09-16T09:15:56;99173.47;;;15.87;62.93
51259;BME280;37327;54.254;18.504;2022-09-16T09:29:26;99189.02;;;16.08;61.48
51259;BME280;37327;54.254;18.504;2022-09-16T09:36:11;99180.39;;;16.33;60.89
51259;BME280;37327;54.254;18.504;2022-09-16T09:49:32;99193.66;;;16.08;60.13
51259;BME280;37327;54.254;18.504;2022-09-16T09:56:11;99188.77;;;16.49;58.95
51259;BME280;37327;54.254;18.504;2022-09-16T10:00:12;99197.06;;;16.59;58.41
51259;BME280;37327;54.254;18.504;2022-09-16T10:02:47;99201.24;;;16.67;58.26
51259;BME280;37327;54.254;18.504;2022-09-16T10:06:23;99197.50;;;16.73;57.34
51259;BME280;37327;54.254;18.504;2022-09-16T10:09:36;99193.60;;;16.86;58.15
51259;BME280;37327;54.254;18.504;2022-09-16T10:12:46;99186.60;;;16.95;57.42
51259;BME280;37327;54.254;18.504;2022-09-16T10:19:20;99191.48;;;16.71;57.11
51259;BME280;37327;54.254;18.504;2022-09-16T10:22:33;99195.16;;;16.59;57.26
51259;BME280;37327;54.254;18.504;2022-09-16T10:25:39;99190.84;;;16.64;57.28
51259;BME280;37327;54.254;18.504;2022-09-16T10:29:01;99194.45;;;16.69;56.98
51259;BME280;37327;54.254;18.504;2022-09-16T10:32:16;99198.21;;;16.85;57.13
51259;BME280;37327;54.254;18.504;2022-09-16T10:35:32;99185.89;;;17.05;56.43
51259;BME280;37327;54.254;18.504;2022-09-16T10:38:52;99198.93;;;17.25;55.76
51259;BME280;37327;54.254;18.504;2022-09-16T10:42:14;99194.61;;;17.29;55.50
51259;BME280;37327;54.254;18.504;2022-09-16T10:45:46;99200.31;;;17.27;55.80
51259;BME280;37327;54.254;18.504;2022-09-16T10:48:52;99200.96;;;17.40;55.83
51259;BME280;37327;54.254;18.504;2022-09-16T10:52:12;99219.41;;;17.27;54.90
51259;BME280;37327;54.254;18.504;2022-09-16T10:55:32;99214.24;;;17.04;55.08
51259;BME280;37327;54.254;18.504;2022-09-16T10:58:44;99226.63;;;16.89;56.18
51259;BME280;37327;54.254;18.504;2022-09-16T11:05:24;99220.24;;;16.62;56.18
51259;BME280;37327;54.254;18.504;2022-09-16T11:12:03;99223.20;;;16.38;57.76
51259;BME280;37327;54.254;18.504;2022-09-16T11:25:31;99215.25;;;16.14;57.31
51259;BME280;37327;54.254;18.504;2022-09-16T11:35:41;99252.67;;;16.41;57.90
51259;BME280;37327;54.254;18.504;2022-09-16T11:45:37;99234.18;;;16.43;57.31
51259;BME280;37327;54.254;18.504;2022-09-16T12:05:32;99238.02;;;16.64;57.70
51259;BME280;37327;54.254;18.504;2022-09-16T12:12:25;99249.40;;;16.22;59.02
51259;BME280;37327;54.254;18.504;2022-09-16T12:36:06;99242.97;;;15.77;64.93
51259;BME280;37327;54.254;18.504;2022-09-16T12:39:14;99244.70;;;15.84;63.27
51259;BME280;37327;54.254;18.504;2022-09-16T12:52:38;99238.51;;;16.05;61.76
51259;BME280;37327;54.254;18.504;2022-09-16T13:02:48;99231.94;;;15.84;60.99
51259;BME280;37327;54.254;18.504;2022-09-16T13:06:12;99236.05;;;15.87;61.29
51259;BME280;37327;54.254;18.504;2022-09-16T13:09:22;99226.98;;;15.98;60.67
51259;BME280;37327;54.254;18.504;2022-09-16T13:12:38;99233.59;;;16.02;59.86
51259;BME280;37327;54.254;18.504;2022-09-16T13:39:25;99225.30;;;15.63;61.25
51259;BME280;37327;54.254;18.504;2022-09-16T13:42:30;99224.95;;;15.59;61.16
51259;BME280;37327;54.254;18.504;2022-09-16T13:45:39;99227.34;;;15.56;61.47
51259;BME280;37327;54.254;18.504;2022-09-16T13:52:14;99216.77;;;15.43;61.84
51259;BME280;37327;54.254;18.504;2022-09-16T13:55:27;99215.03;;;15.36;62.13
51259;BME280;37327;54.254;18.504;2022-09-16T14:08:42;99207.55;;;15.44;61.85
51259;BME280;37327;54.254;18.504;2022-09-16T14:15:10;99223.47;;;15.52;61.53
51259;BME280;37327;54.254;18.504;2022-09-16T14:18:31;99223.98;;;15.49;61.17
51259;BME280;37327;54.254;18.504;2022-09-16T14:21:42;99218.77;;;15.47;61.40
51259;BME280;37327;54.254;18.504;2022-09-16T14:24:55;99219.02;;;15.46;62.39
51259;BME280;37327;54.254;18.504;2022-09-16T14:31:31;99236.90;;;15.42;63.19
51259;BME280;37327;54.254;18.504;2022-09-16T14:34:53;99255.25;;;15.34;64.06
51259;BME280;37327;54.254;18.504;2022-09-16T14:38:03;99260.90;;;15.16;66.49
51259;BME280;37327;54.254;18.504;2022-09-16T14:41:24;99246.07;;;14.95;68.71
51259;BME280;37327;54.254;18.504;2022-09-16T14:44:43;99246.48;;;14.75;70.85
51259;BME280;37327;54.254;18.504;2022-09-16T14:47:59;99245.08;;;14.60;72.43
51259;BME280;37327;54.254;18.504;2022-09-16T14:51:20;99255.59;;;14.45;72.63
51259;BME280;37327;54.254;18.504;2022-09-16T14:54:29;99246.62;;;14.33;72.89
51259;BME280;37327;54.254;18.504;2022-09-16T14:57:43;99244.49;;;14.23;73.41
51259;BME280;37327;54.254;18.504;2022-09-16T15:01:16;99242.37;;;14.13;73.96
51259;BME280;37327;54.254;18.504;2022-09-16T15:04:20;99245.44;;;14.05;74.56
51259;BME280;37327;54.254;18.504;2022-09-16T15:07:38;99244.49;;;13.99;74.70
51259;BME280;37327;54.254;18.504;2022-09-16T15:10:54;99246.84;;;13.96;75.07
51259;BME280;37327;54.254;18.504;2022-09-16T15:14:06;99260.41;;;13.96;75.36
51259;BME280;37327;54.254;18.504;2022-09-16T15:17:20;99258.63;;;13.90;76.08
51259;BME280;37327;54.254;18.504;2022-09-16T15:23:52;99255.77;;;13.73;75.77
51259;BME280;37327;54.254;18.504;2022-09-16T15:27:04;99254.70;;;13.62;76.80
51259;BME280;37327;54.254;18.504;2022-09-16T15:30:25;99253.37;;;13.53;76.94
51259;BME280;37327;54.254;18.504;2022-09-16T15:37:00;99241.90;;;13.39;77.37
51259;BME280;37327;54.254;18.504;2022-09-16T15:43:38;99243.20;;;13.36;77.82
51259;BME280;37327;54.254;18.504;2022-09-16T15:46:51;99243.65;;;13.33;77.56
51259;BME280;37327;54.254;18.504;2022-09-16T15:50:08;99258.05;;;13.34;77.65
51259;BME280;37327;54.254;18.504;2022-09-16T16:00:11;99244.77;;;13.26;77.43
51259;BME280;37327;54.254;18.504;2022-09-16T16:03:26;99242.31;;;13.24;77.28
51259;BME280;37327;54.254;18.504;2022-09-16T16:13:21;99243.41;;;13.04;77.56
51259;BME280;37327;54.254;18.504;2022-09-16T16:16:53;99223.10;;;12.95;77.77
51259;BME280;37327;54.254;18.504;2022-09-16T16:20:05;99229.88;;;12.86;78.16
51259;BME280;37327;54.254;18.504;2022-09-16T16:23:11;99222.67;;;12.80;78.42
51259;BME280;37327;54.254;18.504;2022-09-16T16:26:27;99219.80;;;12.75;78.60
51259;BME280;37327;54.254;18.504;2022-09-16T16:29:43;99219.43;;;12.71;78.46
51259;BME280;37327;54.254;18.504;2022-09-16T16:32:56;99223.20;;;12.70;78.61
51259;BME280;37327;54.254;18.504;2022-09-16T16:36:11;99216.37;;;12.68;78.92
51259;BME280;37327;54.254;18.504;2022-09-16T16:39:16;99221.19;;;12.66;79.29
51259;BME280;37327;54.254;18.504;2022-09-16T16:42:45;99202.68;;;12.62;79.67
51259;BME280;37327;54.254;18.504;2022-09-16T16:45:56;99216.43;;;12.61;79.98
51259;BME280;37327;54.254;18.504;2022-09-16T16:49:14;99217.25;;;12.61;79.92
51259;BME280;37327;54.254;18.504;2022-09-16T16:52:26;99208.69;;;12.64;80.08
51259;BME280;37327;54.254;18.504;2022-09-16T16:55:31;99215.17;;;12.63;80.19
51259;BME280;37327;54.254;18.504;2022-09-16T16:58:41;99218.91;;;12.62;80.22
51259;BME280;37327;54.254;18.504;2022-09-16T17:01:54;99218.91;;;12.62;80.37
51259;BME280;37327;54.254;18.504;2022-09-16T17:05:11;99213.95;;;12.59;80.45
51259;BME280;37327;54.254;18.504;2022-09-16T17:08:24;99223.95;;;12.59;80.69
51259;BME280;37327;54.254;18.504;2022-09-16T17:11:34;99225.24;;;12.56;80.59
51259;BME280;37327;54.254;18.504;2022-09-16T17:14:41;99216.53;;;12.54;80.19
51259;BME280;37327;54.254;18.504;2022-09-16T17:17:51;99212.74;;;12.55;80.42
51259;BME280;37327;54.254;18.504;2022-09-16T17:21:07;99216.53;;;12.54;80.42
51259;BME280;37327;54.254;18.504;2022-09-16T17:24:17;99221.94;;;12.54;80.37
51259;BME280;37327;54.254;18.504;2022-09-16T17:27:29;99217.79;;;12.52;80.54
51259;BME280;37327;54.254;18.504;2022-09-16T17:30:46;99219.67;;;12.51;80.51
51259;BME280;37327;54.254;18.504;2022-09-16T17:34:03;99214.72;;;12.48;80.61
51259;BME280;37327;54.254;18.504;2022-09-16T17:37:12;99222.00;;;12.48;80.78
51259;BME280;37327;54.254;18.504;2022-09-16T17:40:22;99221.17;;;12.47;80.73
51259;BME280;37327;54.254;18.504;2022-09-16T17:43:35;99231.99;;;12.47;80.83
51259;BME280;37327;54.254;18.504;2022-09-16T17:46:46;99227.88;;;12.44;80.80
51259;BME280;37327;54.254;18.504;2022-09-16T17:49:57;99223.72;;;12.42;80.81
51259;BME280;37327;54.254;18.504;2022-09-16T17:53:08;99217.48;;;12.41;80.93
51259;BME280;37327;54.254;18.504;2022-09-16T17:56:38;99212.08;;;12.41;80.87
51259;BME280;37327;54.254;18.504;2022-09-16T17:59:49;99209.98;;;12.43;81.24
51259;BME280;37327;54.254;18.504;2022-09-16T18:03:02;99208.34;;;12.42;81.05
51259;BME280;37327;54.254;18.504;2022-09-16T18:06:14;99204.17;;;12.40;81.10
51259;BME280;37327;54.254;18.504;2022-09-16T18:09:27;99201.47;;;12.40;81.14
51259;BME280;37327;54.254;18.504;2022-09-16T18:12:42;99205.84;;;12.41;81.12
51259;BME280;37327;54.254;18.504;2022-09-16T18:16:00;99202.53;;;12.39;81.17
51259;BME280;37327;54.254;18.504;2022-09-16T18:19:09;99212.16;;;12.35;81.06
51259;BME280;37327;54.254;18.504;2022-09-16T18:22:24;99213.80;;;12.36;80.93
51259;BME280;37327;54.254;18.504;2022-09-16T18:25:41;99212.16;;;12.35;80.91
51259;BME280;37327;54.254;18.504;2022-09-16T18:28:59;99207.57;;;12.35;80.72
51259;BME280;37327;54.254;18.504;2022-09-16T18:32:14;99213.20;;;12.34;80.52
51259;BME280;37327;54.254;18.504;2022-09-16T18:35:27;99210.49;;;12.34;80.68
51259;BME280;37327;54.254;18.504;2022-09-16T18:38:37;99214.87;;;12.35;80.38
51259;BME280;37327;54.254;18.504;2022-09-16T18:41:51;99203.44;;;12.33;80.57
51259;BME280;37327;54.254;18.504;2022-09-16T18:45:03;99205.30;;;12.32;80.32
51259;BME280;37327;54.254;18.504;2022-09-16T18:48:15;99203.44;;;12.33;80.20
51259;BME280;37327;54.254;18.504;2022-09-16T18:51:33;99208.86;;;12.33;80.36
51259;BME280;37327;54.254;18.504;2022-09-16T18:54:50;99206.80;;;12.28;80.57
51259;BME280;37327;54.254;18.504;2022-09-16T18:57:59;99202.08;;;12.23;80.64
51259;BME280;37327;54.254;18.504;2022-09-16T19:01:34;99196.88;;;12.22;80.93
51259;BME280;37327;54.254;18.504;2022-09-16T19:04:41;99191.94;;;12.19;81.02
51259;BME280;37327;54.254;18.504;2022-09-16T19:07:51;99194.26;;;12.15;81.13
51259;BME280;37327;54.254;18.504;2022-09-16T19:11:01;99192.84;;;12.13;81.24
51259;BME280;37327;54.254;18.504;2022-09-16T19:14:07;99188.69;;;12.10;81.34
51259;BME280;37327;54.254;18.504;2022-09-16T19:17:13;99190.57;;;12.10;81.33
51259;BME280;37327;54.254;18.504;2022-09-16T19:20:21;99179.95;;;12.08;81.38
51259;BME280;37327;54.254;18.504;2022-09-16T19:23:30;99184.77;;;12.06;81.37
51259;BME280;37327;54.254;18.504;2022-09-16T19:27:00;99189.58;;;12.04;81.58
51259;BME280;37327;54.254;18.504;2022-09-16T19:30:06;99187.09;;;12.02;81.72
51259;BME280;37327;54.254;18.504;2022-09-16T19:33:12;99188.16;;;12.01;81.96
51259;BME280;37327;54.254;18.504;2022-09-16T19:36:20;99202.50;;;12.02;81.98
51259;BME280;37327;54.254;18.504;2022-09-16T19:39:27;99197.09;;;12.02;81.96
51259;BME280;37327;54.254;18.504;2022-09-16T19:42:32;99216.24;;;12.00;81.90
51259;BME280;37327;54.254;18.504;2022-09-16T19:45:40;99221.66;;;12.00;82.12
51259;BME280;37327;54.254;18.504;2022-09-16T19:48:50;99227.88;;;12.01;82.30
51259;BME280;37327;54.254;18.504;2022-09-16T19:51:59;99233.92;;;12.03;82.28
51259;BME280;37327;54.254;18.504;2022-09-16T19:55:05;99234.95;;;12.02;82.74
51259;BME280;37327;54.254;18.504;2022-09-16T19:58:09;99233.29;;;12.01;83.29
51259;BME280;37327;54.254;18.504;2022-09-16T20:01:38;99228.34;;;11.98;84.71
51259;BME280;37327;54.254;18.504;2022-09-16T20:04:45;99228.77;;;11.95;86.10
51259;BME280;37327;54.254;18.504;2022-09-16T20:07:54;99237.75;;;11.89;87.09
51259;BME280;37327;54.254;18.504;2022-09-16T20:11:08;99232.84;;;11.79;88.05
51259;BME280;37327;54.254;18.504;2022-09-16T20:14:17;99236.81;;;11.76;88.66
51259;BME280;37327;54.254;18.504;2022-09-16T20:20:35;99224.80;;;11.72;89.71
51259;BME280;37327;54.254;18.504;2022-09-16T20:23:41;99236.03;;;11.69;90.31
51259;BME280;37327;54.254;18.504;2022-09-16T20:26:52;99241.65;;;11.68;90.98
51259;BME280;37327;54.254;18.504;2022-09-16T20:29:57;99240.23;;;11.65;91.50
51259;BME280;37327;54.254;18.504;2022-09-16T20:33:05;99228.59;;;11.64;91.91
51259;BME280;37327;54.254;18.504;2022-09-16T20:36:16;99229.88;;;11.62;92.30
51259;BME280;37327;54.254;18.504;2022-09-16T20:39:30;99226.52;;;11.60;92.37
51259;BME280;37327;54.254;18.504;2022-09-16T20:42:42;99226.77;;;11.58;92.89
51259;BME280;37327;54.254;18.504;2022-09-16T20:46:13;99227.66;;;11.52;93.80
51259;BME280;37327;54.254;18.504;2022-09-16T20:49:19;99224.56;;;11.49;94.73
51259;BME280;37327;54.254;18.504;2022-09-16T20:52:30;99221.86;;;11.49;95.20
51259;BME280;37327;54.254;18.504;2022-09-16T20:55:39;99216.45;;;11.49;95.45
51259;BME280;37327;54.254;18.504;2022-09-16T20:58:52;99216.45;;;11.49;95.46
51259;BME280;37327;54.254;18.504;2022-09-16T21:01:57;99218.55;;;11.46;95.36
51259;BME280;37327;54.254;18.504;2022-09-16T21:05:10;99208.77;;;11.45;95.67
51259;BME280;37327;54.254;18.504;2022-09-16T21:08:17;99195.86;;;11.48;96.01
51259;BME280;37327;54.254;18.504;2022-09-16T21:11:32;99193.16;;;11.48;96.01
51259;BME280;37327;54.254;18.504;2022-09-16T21:14:58;99200.66;;;11.45;96.21
51259;BME280;37327;54.254;18.504;2022-09-16T21:18:29;99188.63;;;11.41;96.56
51259;BME280;37327;54.254;18.504;2022-09-16T21:21:33;99190.52;;;11.41;97.16